Brevnov, Czech Republic

4:26 AM CET on November 18, 2019 (GMT +0100)
Prague | | Change Station

Elev 1129 ft 50.08 °N, 14.36 °E | Updated 3 seconds ago

Mostly Cloudy
Mostly Cloudy
48 °F
Feels Like 48 °F
N
0.8
Wind Variable Wind from WNW
Gusts 0.8 mph

Today
High -- | Low -- °F
--% Chance of Precip.
Yesterday
High -- | Low -- °F
Precip. -- in
Pressure 29.65 in
Visibility 6.2 miles
Clouds Mostly Cloudy 2100 ft
Windchill 48 °F
Dew Point 46 °F
Humidity 92%
Rainfall 0.00 in
Snow Depth Not available.
7:19 AM 4:14 PM
Waning Gibbous, 69% visible
METAR LKPR 180300Z VRB02KT 9999 BKN021 10/07 Q1004 TEMPO BKN017
Pressure 29.65 in
Visibility 6.2 miles
Clouds Mostly Cloudy 2100 ft
Windchill 48 °F
Dew Point 46 °F
Humidity 92%
Rainfall 0.00 in
Snow Depth Not available.
7:19 AM 4:14 PM
Waning Gibbous, 69% visible
METAR LKPR 180300Z VRB02KT 9999 BKN021 10/07 Q1004 TEMPO BKN017

Get Severe Weather Alerts

Thanks for signing up!

Be on the lookout for a verification email in your inbox.

You'll start receiving the daily forecast at 6 AM.

×

10-Day Weather Forecast

×

Almanac

Astronomy

Nov. 18, 2019 Rise Set
Actual Time
Civil Twilight
Nautical Twilight
Astronomical Twilight
Moon
Length of Visible Light
Length of Day
Tomorrow will be .
, % of the Moon is Illuminated

Today's Extremes

Country Highs Country Lows

Community

WunderPhotos

Category 6

Welcome to Category 6. This is the collective home for Weather Underground's featured writeups by Dr. Jeff Masters (right), Bob Henson (left), Chris Burt, and other regular contributors.

Nearby

Air Quality

  Air Quality AQ Index Pollutant
Not available.

Snow Depth

Station Depth Elevation

Earthquake Activity

City Distance Mag. Time & Date
Minimum magnitude displayed is 2.5.

Coastal Water Temperatures

Place Temperature

Stations

Nearby Weather Stations

Station Location Temp. Windchill Dew Point Humidity Wind Precip. Elev Updated Type